Time;durP1;ratioP1;P1;durP2;ratioP2;P2;SDS_P1;SDS_P2;PMS_P1;PMS_P2;Temp;Humidity;BMP_temperature;BMP_pressure;BME280_temperature;BME280_humidity;BME280_pressure;Samples;Min_cycle;Max_cycle;Signal;HPM_P1;HPM_P2
2023/10/27 00:01:44;;;;;;;3.75;3.35;;;20.90;50.10;;;;;;5065953;28;20024;-59
2023/10/27 00:04:10;;;;;;;5.30;3.40;;;20.80;50.10;;;;;;5068873;28;20033;-58
2023/10/27 00:06:36;;;;;;;4.38;3.17;;;20.80;50.10;;;;;;5065155;28;20033;-57
2023/10/27 00:09:02;;;;;;;4.03;2.95;;;20.80;50.10;;;;;;5053404;28;20111;-58
2023/10/27 00:11:28;;;;;;;3.20;2.90;;;20.80;50.10;;;;;;5065101;28;20028;-54
2023/10/27 00:13:56;;;;;;;3.50;3.00;;;20.80;50.20;;;;;;5066946;28;20044;-55
2023/10/27 00:16:22;;;;;;;3.83;3.00;;;20.80;50.20;;;;;;5031916;28;20021;-57
2023/10/27 00:18:48;;;;;;;5.05;3.10;;;20.80;50.20;;;;;;5070214;28;20483;-54
2023/10/27 00:21:14;;;;;;;3.97;3.45;;;20.80;50.20;;;;;;5072330;28;20029;-57
2023/10/27 00:23:40;;;;;;;4.38;2.95;;;20.80;50.20;;;;;;5065485;28;20044;-57
2023/10/27 00:26:06;;;;;;;3.50;3.05;;;20.80;50.20;;;;;;5069618;28;20067;-56
2023/10/27 00:28:32;;;;;;;4.30;3.47;;;20.80;50.30;;;;;;5070830;28;20029;-57
2023/10/27 00:31:01;;;;;;;4.30;3.90;;;20.80;50.30;;;;;;5047088;28;20367;-57
2023/10/27 00:33:27;;;;;;;4.10;3.50;;;20.80;50.30;;;;;;5067842;28;20141;-58
2023/10/27 00:35:53;;;;;;;3.60;3.08;;;20.80;50.30;;;;;;5075826;28;20025;-57
2023/10/27 00:38:20;;;;;;;4.50;3.83;;;20.80;50.30;;;;;;5050098;28;20095;-56
2023/10/27 00:40:46;;;;;;;4.20;3.75;;;20.80;50.40;;;;;;5074479;28;20347;-56
2023/10/27 00:43:18;;;;;;;4.68;3.10;;;20.70;50.40;;;;;;5045491;28;20495;-57
2023/10/27 00:45:48;;;;;;;3.88;3.40;;;20.80;50.40;;;;;;5049003;28;20030;-56
2023/10/27 00:48:15;;;;;;;4.70;3.28;;;20.70;50.40;;;;;;5068898;28;20028;-57
2023/10/27 00:50:42;;;;;;;4.93;3.78;;;20.70;50.40;;;;;;5068753;28;20108;-57
2023/10/27 00:53:08;;;;;;;3.80;3.30;;;20.70;50.50;;;;;;5063020;28;20036;-59
2023/10/27 00:55:35;;;;;;;4.55;3.40;;;20.70;50.50;;;;;;5067302;28;20047;-58
2023/10/27 00:58:03;;;;;;;4.80;3.80;;;20.70;50.50;;;;;;5068398;28;20028;-55
2023/10/27 01:00:29;;;;;;;3.65;3.20;;;20.70;50.50;;;;;;5064364;28;20033;-57
2023/10/27 01:02:55;;;;;;;3.38;3.08;;;20.70;50.50;;;;;;5067654;28;20369;-57
2023/10/27 01:05:21;;;;;;;4.30;3.55;;;20.70;50.50;;;;;;5071231;28;20016;-58
2023/10/27 01:07:46;;;;;;;4.97;3.50;;;20.70;50.60;;;;;;5055011;28;20108;-57
2023/10/27 01:10:12;;;;;;;4.32;3.55;;;20.70;50.60;;;;;;5071754;28;20024;-57
2023/10/27 01:12:38;;;;;;;4.53;3.90;;;20.70;50.60;;;;;;5050083;28;20058;-57
2023/10/27 01:15:05;;;;;;;5.10;3.63;;;20.70;50.60;;;;;;5045922;28;20372;-57
2023/10/27 01:17:31;;;;;;;6.18;4.20;;;20.70;50.60;;;;;;5068547;28;20035;-57
2023/10/27 01:19:56;;;;;;;5.18;3.75;;;20.70;50.60;;;;;;5069650;28;20035;-57
2023/10/27 01:22:25;;;;;;;4.90;4.30;;;20.70;50.70;;;;;;5074561;28;20032;-57
2023/10/27 01:24:51;;;;;;;6.20;4.18;;;20.70;50.70;;;;;;5066685;28;20021;-56
2023/10/27 01:27:16;;;;;;;6.57;4.55;;;20.70;50.70;;;;;;5074115;28;20448;-56
2023/10/27 01:29:42;;;;;;;4.97;4.28;;;20.70;50.80;;;;;;5068946;28;20020;-58
2023/10/27 01:32:08;;;;;;;6.28;4.78;;;20.70;50.80;;;;;;5065372;28;20900;-57
2023/10/27 01:34:34;;;;;;;5.70;4.40;;;20.70;50.80;;;;;;5035061;28;20060;-57
2023/10/27 01:36:59;;;;;;;5.03;4.40;;;20.70;50.80;;;;;;5034637;28;20087;-57
2023/10/27 01:39:25;;;;;;;5.35;4.30;;;20.70;50.90;;;;;;5033553;28;20099;-59
2023/10/27 01:41:51;;;;;;;5.55;4.32;;;20.70;50.90;;;;;;5036085;28;20030;-57
2023/10/27 01:44:17;;;;;;;5.65;4.15;;;20.70;50.90;;;;;;5036181;28;20377;-58
2023/10/27 01:46:43;;;;;;;5.60;4.57;;;20.60;50.90;;;;;;5031582;28;20506;-57
2023/10/27 01:49:08;;;;;;;5.78;4.40;;;20.70;50.90;;;;;;5029685;28;20025;-57
2023/10/27 01:51:34;;;;;;;5.30;4.70;;;20.60;50.90;;;;;;5029095;28;20076;-57
2023/10/27 01:54:00;;;;;;;5.43;4.45;;;20.60;50.90;;;;;;5031191;28;20349;-55
2023/10/27 01:56:26;;;;;;;5.32;4.47;;;20.60;51.00;;;;;;5059436;28;20030;-57
2023/10/27 01:58:52;;;;;;;5.18;4.13;;;20.60;51.00;;;;;;5035430;28;20045;-59
2023/10/27 02:01:18;;;;;;;5.75;4.30;;;20.60;51.00;;;;;;5030188;28;20036;-56
2023/10/27 02:03:44;;;;;;;5.47;4.35;;;20.60;51.10;;;;;;5030895;28;20026;-57
2023/10/27 02:06:10;;;;;;;5.40;4.30;;;20.60;51.10;;;;;;5041141;28;20462;-56
2023/10/27 02:08:35;;;;;;;5.40;4.55;;;20.60;51.10;;;;;;5037697;28;20022;-57
2023/10/27 02:11:03;;;;;;;5.85;4.63;;;20.60;51.10;;;;;;5033805;28;20030;-56
2023/10/27 02:13:29;;;;;;;6.40;4.68;;;20.60;51.80;;;;;;5045241;28;20038;-54
2023/10/27 02:15:55;;;;;;;5.97;4.70;;;20.60;51.20;;;;;;5042614;28;20103;-57
2023/10/27 02:18:21;;;;;;;6.30;5.05;;;20.60;51.20;;;;;;5033062;28;20051;-57
2023/10/27 02:20:48;;;;;;;6.05;4.78;;;20.60;51.20;;;;;;5054666;28;20444;-56
2023/10/27 02:23:17;;;;;;;6.15;4.70;;;20.60;51.30;;;;;;5033026;28;20029;-58
2023/10/27 02:25:44;;;;;;;6.15;4.90;;;20.60;51.30;;;;;;5033327;28;20035;-56
2023/10/27 02:28:10;;;;;;;6.25;5.00;;;20.60;51.30;;;;;;5057743;28;20029;-59
2023/10/27 02:30:36;;;;;;;5.28;4.47;;;20.60;51.30;;;;;;5035671;28;20024;-56
2023/10/27 02:33:02;;;;;;;5.63;4.70;;;20.60;51.40;;;;;;5031489;28;20436;-56
2023/10/27 02:35:28;;;;;;;5.75;4.30;;;20.60;51.40;;;;;;5054027;28;20055;-59
2023/10/27 02:37:54;;;;;;;5.90;4.43;;;20.60;51.40;;;;;;5054386;28;20138;-57
2023/10/27 02:40:20;;;;;;;5.15;4.25;;;20.50;51.30;;;;;;5052607;28;20151;-56
2023/10/27 02:42:46;;;;;;;5.70;4.63;;;20.60;51.40;;;;;;5054151;28;20061;-56
2023/10/27 02:45:14;;;;;;;5.15;4.40;;;20.60;51.50;;;;;;5045006;28;20033;-56
2023/10/27 02:47:40;;;;;;;5.22;4.15;;;20.50;51.40;;;;;;5056916;28;20120;-60
2023/10/27 02:50:06;;;;;;;5.97;4.68;;;20.50;51.50;;;;;;5048988;28;20575;-55
2023/10/27 02:52:32;;;;;;;5.57;4.65;;;20.50;51.40;;;;;;5072488;28;20037;-58
2023/10/27 02:54:57;;;;;;;5.97;4.80;;;20.50;51.50;;;;;;5067327;28;20136;-57
2023/10/27 02:57:23;;;;;;;4.78;3.92;;;20.50;51.50;;;;;;5044587;28;20033;-56
2023/10/27 02:59:49;;;;;;;5.72;4.38;;;20.50;51.50;;;;;;5061561;28;20036;-58
2023/10/27 03:02:15;;;;;;;6.65;3.95;;;20.50;51.50;;;;;;5060196;28;20044;-58
2023/10/27 03:04:42;;;;;;;4.30;3.80;;;20.50;51.50;;;;;;5060044;28;20032;-59
2023/10/27 03:07:08;;;;;;;4.63;4.10;;;20.50;51.50;;;;;;5059049;28;20033;-58
2023/10/27 03:09:33;;;;;;;4.72;4.22;;;20.50;51.50;;;;;;5059309;28;20025;-57
2023/10/27 03:11:59;;;;;;;5.65;4.43;;;20.50;51.50;;;;;;5069020;28;20038;-54
2023/10/27 03:14:25;;;;;;;5.47;4.28;;;20.50;51.60;;;;;;5068021;28;20380;-58
2023/10/27 03:16:51;;;;;;;5.63;4.22;;;20.50;51.60;;;;;;5061014;28;20052;-56
2023/10/27 03:19:17;;;;;;;5.50;4.43;;;20.50;51.60;;;;;;5059725;28;20466;-57
2023/10/27 03:21:43;;;;;;;5.35;4.18;;;20.50;51.60;;;;;;5064630;28;20086;-57
2023/10/27 03:24:09;;;;;;;5.47;4.13;;;20.50;51.60;;;;;;5069065;28;20125;-55
2023/10/27 03:26:35;;;;;;;4.07;3.45;;;20.50;51.70;;;;;;5065350;28;20024;-53
2023/10/27 03:29:01;;;;;;;5.00;4.13;;;20.50;51.70;;;;;;5066624;28;20040;-57
2023/10/27 03:31:27;;;;;;;3.83;3.40;;;20.50;51.70;;;;;;5069615;28;20039;-57
2023/10/27 03:33:53;;;;;;;4.90;3.80;;;20.50;51.70;;;;;;5065152;28;20443;-57
2023/10/27 03:36:18;;;;;;;4.22;3.67;;;20.50;51.70;;;;;;5067383;28;20075;-56
2023/10/27 03:38:44;;;;;;;4.25;3.85;;;20.50;51.80;;;;;;5067522;28;20117;-57
2023/10/27 03:41:10;;;;;;;4.80;3.92;;;20.50;51.80;;;;;;5069069;28;20059;-60
2023/10/27 03:43:36;;;;;;;5.35;4.20;;;20.50;51.80;;;;;;5084984;28;20063;-58
2023/10/27 03:46:02;;;;;;;4.45;3.90;;;20.50;51.80;;;;;;5063519;28;20447;-56
2023/10/27 03:48:29;;;;;;;6.15;4.45;;;20.40;51.80;;;;;;5067665;28;20032;-57
2023/10/27 03:50:57;;;;;;;5.20;4.50;;;20.50;51.90;;;;;;5067297;28;20090;-57
2023/10/27 03:53:23;;;;;;;5.22;4.20;;;20.50;51.90;;;;;;5067557;28;20402;-56
2023/10/27 03:55:52;;;;;;;4.70;3.90;;;20.40;51.80;;;;;;5066428;28;20040;-50
2023/10/27 03:58:18;;;;;;;4.30;3.70;;;20.50;51.90;;;;;;5065385;28;21766;-57
2023/10/27 04:00:44;;;;;;;5.05;3.95;;;20.40;51.90;;;;;;5062664;28;20040;-55
2023/10/27 04:03:11;;;;;;;4.70;4.10;;;20.40;51.90;;;;;;5068053;28;20463;-56
2023/10/27 04:05:37;;;;;;;4.10;3.60;;;20.50;52.00;;;;;;5065547;28;20032;-56
2023/10/27 04:08:06;;;;;;;4.82;3.78;;;20.40;51.90;;;;;;5057436;28;20402;-58
2023/10/27 04:10:36;;;;;;;4.38;3.67;;;20.50;52.00;;;;;;5068374;28;20025;-58
2023/10/27 04:13:02;;;;;;;5.18;3.67;;;20.40;52.00;;;;;;5065957;28;20063;-57
2023/10/27 04:15:28;;;;;;;3.92;3.08;;;20.40;52.00;;;;;;5068158;28;20153;-59
2023/10/27 04:17:54;;;;;;;3.97;3.13;;;20.40;52.00;;;;;;5058064;28;20443;-58
2023/10/27 04:20:20;;;;;;;3.90;3.20;;;20.40;52.00;;;;;;5063260;28;20460;-58
2023/10/27 04:22:45;;;;;;;4.18;3.42;;;20.40;52.00;;;;;;5067131;28;20021;-57
2023/10/27 04:25:12;;;;;;;3.08;2.75;;;20.40;52.00;;;;;;5067313;28;20444;-57
2023/10/27 04:27:38;;;;;;;3.20;2.75;;;20.40;52.00;;;;;;5061931;28;20037;-57
2023/10/27 04:30:07;;;;;;;3.40;3.08;;;20.40;52.00;;;;;;5061894;28;20032;-58
2023/10/27 04:32:37;;;;;;;3.65;3.03;;;20.40;52.00;;;;;;5065265;28;20020;-56
2023/10/27 04:35:03;;;;;;;3.25;2.92;;;20.40;52.00;;;;;;5081377;28;20348;-58
2023/10/27 04:37:32;;;;;;;3.00;2.60;;;20.40;52.00;;;;;;5083520;28;20037;-51
2023/10/27 04:39:58;;;;;;;3.10;2.70;;;20.40;52.00;;;;;;5071518;28;20039;-55
2023/10/27 04:42:25;;;;;;;3.00;2.50;;;20.40;52.00;;;;;;5088258;28;20128;-58
2023/10/27 04:44:51;;;;;;;3.00;2.70;;;20.40;52.10;;;;;;5086471;28;20036;-54
2023/10/27 04:47:16;;;;;;;3.00;2.50;;;20.40;52.10;;;;;;5082410;28;20027;-56
2023/10/27 04:49:42;;;;;;;3.20;2.65;;;20.40;52.10;;;;;;5086030;28;20036;-57
2023/10/27 04:52:08;;;;;;;3.15;2.63;;;20.40;52.10;;;;;;5087259;28;20024;-56
2023/10/27 04:54:34;;;;;;;2.97;2.45;;;20.40;52.10;;;;;;5087963;28;20584;-58
2023/10/27 04:57:05;;;;;;;3.10;2.50;;;20.40;52.10;;;;;;5083624;28;20092;-58
2023/10/27 04:59:31;;;;;;;2.65;2.13;;;20.40;52.10;;;;;;5079065;28;20032;-58
2023/10/27 05:01:57;;;;;;;2.60;2.40;;;20.40;52.10;;;;;;5085281;28;20067;-57
2023/10/27 05:04:23;;;;;;;2.47;2.05;;;20.30;52.10;;;;;;5088319;28;20476;-58
2023/10/27 05:06:49;;;;;;;2.50;2.30;;;20.30;52.10;;;;;;5087386;28;20032;-57
2023/10/27 05:09:18;;;;;;;3.67;2.97;;;20.30;52.20;;;;;;5084439;28;20370;-58
2023/10/27 05:11:45;;;;;;;2.75;2.20;;;20.40;52.20;;;;;;5084634;28;20043;-56
2023/10/27 05:14:12;;;;;;;2.33;2.13;;;20.40;52.20;;;;;;5089819;28;20067;-55
2023/10/27 05:16:40;;;;;;;2.13;1.92;;;20.30;52.20;;;;;;5089779;28;20375;-57
2023/10/27 05:19:06;;;;;;;2.33;2.00;;;20.30;52.20;;;;;;5084969;28;20044;-58
2023/10/27 05:21:32;;;;;;;2.10;1.90;;;20.30;52.20;;;;;;5089396;28;20042;-58
2023/10/27 05:23:58;;;;;;;2.13;1.80;;;20.30;52.20;;;;;;5091490;28;20040;-54
2023/10/27 05:26:24;;;;;;;2.28;2.08;;;20.30;52.20;;;;;;5091188;28;20016;-55
2023/10/27 05:28:51;;;;;;;1.80;1.63;;;20.30;52.20;;;;;;5087447;28;20601;-59
2023/10/27 05:31:17;;;;;;;2.10;1.90;;;20.30;52.20;;;;;;5088986;28;20028;-55
2023/10/27 05:33:43;;;;;;;2.25;1.83;;;20.30;52.20;;;;;;5083721;28;20044;-58
2023/10/27 05:36:09;;;;;;;2.75;2.08;;;20.30;52.30;;;;;;5091256;28;20324;-58
2023/10/27 05:38:35;;;;;;;2.10;1.90;;;20.30;52.20;;;;;;5088241;28;20093;-56
2023/10/27 05:41:00;;;;;;;2.28;2.00;;;20.30;52.20;;;;;;5085266;28;20020;-58
2023/10/27 05:43:26;;;;;;;2.25;1.90;;;20.30;52.20;;;;;;5086901;28;20104;-56
2023/10/27 05:45:52;;;;;;;2.25;1.98;;;20.30;52.20;;;;;;5087928;28;20032;-57
2023/10/27 05:48:18;;;;;;;3.55;2.00;;;20.30;52.20;;;;;;5090020;28;20127;-57
2023/10/27 05:50:44;;;;;;;2.10;1.90;;;20.30;52.20;;;;;;5090719;28;20446;-58
2023/10/27 05:53:10;;;;;;;1.88;1.70;;;20.30;52.20;;;;;;5090914;28;20100;-55
2023/10/27 05:55:36;;;;;;;2.17;1.98;;;20.30;52.20;;;;;;5088855;28;20039;-57
2023/10/27 05:58:02;;;;;;;1.63;1.52;;;20.30;52.30;;;;;;5086960;28;20097;-56
2023/10/27 06:00:29;;;;;;;2.28;1.63;;;20.30;52.30;;;;;;5090066;28;20040;-56
2023/10/27 06:02:55;;;;;;;2.25;1.98;;;20.30;52.30;;;;;;5089141;28;20508;-56
2023/10/27 06:05:23;;;;;;;2.00;1.70;;;20.30;52.30;;;;;;5081146;28;20107;-57
2023/10/27 06:07:49;;;;;;;2.30;2.03;;;20.30;52.30;;;;;;5082760;28;20036;-56
2023/10/27 06:10:15;;;;;;;2.17;1.83;;;20.30;52.30;;;;;;5089746;28;20032;-58
2023/10/27 06:12:41;;;;;;;2.05;1.80;;;20.30;52.30;;;;;;5090151;28;20020;-54
2023/10/27 06:15:07;;;;;;;1.58;1.40;;;20.30;52.30;;;;;;5084783;28;20411;-56
2023/10/27 06:17:33;;;;;;;1.80;1.50;;;20.30;52.30;;;;;;5080896;28;20397;-57
2023/10/27 06:20:02;;;;;;;2.50;1.98;;;20.30;52.40;;;;;;5087580;28;20032;-59
2023/10/27 06:22:28;;;;;;;2.42;1.90;;;20.30;52.40;;;;;;5084678;28;20032;-56
2023/10/27 06:24:54;;;;;;;4.45;1.80;;;20.30;52.40;;;;;;5084102;28;20032;-55
2023/10/27 06:27:19;;;;;;;3.15;2.15;;;20.30;52.40;;;;;;5092804;28;20093;-55
2023/10/27 06:29:45;;;;;;;2.58;1.73;;;20.30;52.40;;;;;;5087166;28;20023;-56
2023/10/27 06:32:11;;;;;;;3.88;2.28;;;20.30;52.40;;;;;;5083874;28;20374;-57
2023/10/27 06:34:37;;;;;;;2.15;1.85;;;20.30;52.40;;;;;;5083184;28;20104;-54
2023/10/27 06:37:03;;;;;;;3.30;2.10;;;20.30;52.50;;;;;;5090729;28;20119;-56
2023/10/27 06:39:29;;;;;;;2.70;2.05;;;20.30;52.50;;;;;;5086345;28;20065;-56
2023/10/27 06:41:55;;;;;;;2.72;1.98;;;20.30;52.50;;;;;;5067624;28;20035;-57
2023/10/27 06:44:21;;;;;;;2.42;1.67;;;20.20;52.40;;;;;;5087323;28;20296;-57
2023/10/27 06:46:47;;;;;;;1.67;1.45;;;20.20;52.50;;;;;;5090689;28;20043;-57
2023/10/27 06:49:13;;;;;;;1.98;1.60;;;20.20;52.40;;;;;;5083775;28;20070;-59
2023/10/27 06:51:39;;;;;;;2.28;1.65;;;20.30;52.50;;;;;;5089818;28;20028;-58
2023/10/27 06:54:05;;;;;;;2.30;1.52;;;20.30;52.50;;;;;;5086477;28;20039;-58
2023/10/27 06:56:31;;;;;;;2.15;1.67;;;20.30;52.50;;;;;;5087898;28;20028;-55
2023/10/27 06:58:59;;;;;;;3.35;2.08;;;20.30;52.50;;;;;;5079296;28;20040;-57
2023/10/27 07:01:25;;;;;;;4.03;1.90;;;20.20;52.50;;;;;;5081056;28;20051;-56
2023/10/27 07:03:51;;;;;;;3.35;1.52;;;20.20;52.50;;;;;;5088181;28;20074;-56
2023/10/27 07:06:17;;;;;;;2.17;1.48;;;20.20;52.50;;;;;;5084863;28;20024;-56
2023/10/27 07:08:44;;;;;;;2.53;1.38;;;20.20;52.60;;;;;;5073375;28;20719;-56
2023/10/27 07:11:10;;;;;;;1.65;1.40;;;20.20;52.60;;;;;;5086741;28;20076;-57
2023/10/27 07:13:36;;;;;;;2.05;1.50;;;20.20;52.60;;;;;;5065593;28;20070;-53
2023/10/27 07:16:02;;;;;;;1.60;1.42;;;20.20;52.60;;;;;;5081482;28;20048;-55
2023/10/27 07:18:29;;;;;;;2.35;1.60;;;20.20;52.60;;;;;;5074066;28;20458;-55
2023/10/27 07:20:56;;;;;;;1.83;1.40;;;20.20;52.60;;;;;;5082375;28;20028;-57
2023/10/27 07:23:25;;;;;;;1.92;1.17;;;20.20;52.70;;;;;;5089793;28;20020;-57
2023/10/27 07:25:51;;;;;;;1.40;1.30;;;20.20;52.70;;;;;;5088064;28;20032;-55
2023/10/27 07:28:16;;;;;;;1.25;1.10;;;20.20;52.80;;;;;;5067142;28;20039;-56
2023/10/27 07:30:43;;;;;;;1.75;1.48;;;20.20;52.90;;;;;;5078080;28;20020;-59
2023/10/27 07:33:10;;;;;;;1.73;1.10;;;20.20;52.90;;;;;;5076794;28;20465;-57
2023/10/27 07:35:36;;;;;;;2.15;1.40;;;20.30;53.00;;;;;;5074112;28;20032;-58
2023/10/27 07:38:03;;;;;;;1.83;1.33;;;20.20;53.00;;;;;;5073953;28;20040;-59
2023/10/27 07:40:29;;;;;;;2.38;1.30;;;20.20;53.00;;;;;;5089218;28;20036;-57
2023/10/27 07:42:59;;;;;;;1.63;1.02;;;20.20;53.00;;;;;;5081387;28;20046;-60
2023/10/27 07:45:25;;;;;;;1.60;1.30;;;20.20;53.00;;;;;;5056256;28;20111;-57
2023/10/27 07:47:51;;;;;;;1.60;1.20;;;20.20;53.00;;;;;;5074705;28;20020;-55
2023/10/27 07:50:17;;;;;;;2.40;1.50;;;20.20;53.10;;;;;;5092406;28;20024;-58
2023/10/27 07:52:44;;;;;;;1.20;1.02;;;20.20;53.00;;;;;;5090096;28;20049;-56
2023/10/27 07:55:10;;;;;;;1.58;1.08;;;20.20;53.00;;;;;;5086980;28;20463;-56
2023/10/27 07:57:36;;;;;;;1.35;1.10;;;20.20;53.00;;;;;;5094730;28;20032;-57
2023/10/27 08:00:04;;;;;;;2.13;1.23;;;20.20;53.00;;;;;;5083498;28;20093;-58
2023/10/27 08:02:33;;;;;;;1.70;1.40;;;20.20;53.00;;;;;;5082781;28;20102;-58
2023/10/27 08:04:59;;;;;;;1.88;1.35;;;20.20;53.00;;;;;;5073017;28;20059;-57
2023/10/27 08:07:25;;;;;;;1.35;1.23;;;20.20;52.90;;;;;;5070444;28;20453;-58
2023/10/27 08:09:51;;;;;;;1.30;1.20;;;20.20;53.00;;;;;;5071869;28;20159;-57
2023/10/27 08:12:17;;;;;;;1.83;1.42;;;20.20;53.00;;;;;;5073119;28;20034;-57
2023/10/27 08:14:44;;;;;;;1.20;1.10;;;20.20;53.00;;;;;;5071587;28;20068;-56
2023/10/27 08:17:10;;;;;;;1.20;1.08;;;20.20;53.00;;;;;;5073633;28;20370;-57
2023/10/27 08:19:36;;;;;;;2.10;1.35;;;20.20;53.00;;;;;;5070814;28;20056;-59
2023/10/27 08:22:02;;;;;;;1.20;1.10;;;20.20;53.00;;;;;;5076323;28;20039;-58
2023/10/27 08:24:28;;;;;;;1.45;1.30;;;20.20;52.90;;;;;;5073540;28;20020;-58
2023/10/27 08:26:53;;;;;;;1.40;1.30;;;20.20;52.90;;;;;;5069947;28;20096;-57
2023/10/27 08:29:19;;;;;;;1.38;1.20;;;20.20;52.90;;;;;;5072573;28;20112;-59
2023/10/27 08:31:45;;;;;;;1.20;1.10;;;20.20;52.90;;;;;;5079284;28;20508;-59
2023/10/27 08:34:11;;;;;;;2.15;1.70;;;20.20;52.90;;;;;;5074499;28;20036;-58
2023/10/27 08:36:38;;;;;;;1.63;1.35;;;20.20;52.90;;;;;;5079716;28;20305;-58
2023/10/27 08:39:04;;;;;;;1.60;1.38;;;20.20;52.90;;;;;;5075834;28;22331;-59
2023/10/27 08:41:32;;;;;;;1.55;1.30;;;20.20;52.90;;;;;;5086532;28;20406;-56
2023/10/27 08:43:59;;;;;;;2.05;1.40;;;20.20;52.90;;;;;;5092300;28;20032;-57
2023/10/27 08:46:27;;;;;;;1.70;1.48;;;20.20;53.00;;;;;;5098545;28;20024;-59
2023/10/27 08:48:53;;;;;;;1.92;1.30;;;20.20;53.00;;;;;;5098664;28;20039;-57
2023/10/27 08:51:20;;;;;;;2.15;1.40;;;20.20;53.00;;;;;;5098212;28;20024;-57
2023/10/27 08:53:46;;;;;;;1.58;1.45;;;20.20;53.00;;;;;;5094790;28;20044;-58
2023/10/27 08:56:13;;;;;;;1.20;1.10;;;20.20;53.00;;;;;;5096349;28;20024;-57
2023/10/27 08:58:47;;;;;;;1.52;1.38;;;20.20;53.00;;;;;;5093373;28;20086;-56
2023/10/27 09:01:13;;;;;;;1.67;1.20;;;20.20;53.00;;;;;;5097915;28;20042;-57
2023/10/27 09:03:40;;;;;;;1.23;1.10;;;20.20;52.90;;;;;;5095892;28;20024;-56
2023/10/27 09:06:06;;;;;;;1.30;1.20;;;20.20;52.90;;;;;;5079961;28;20448;-58
2023/10/27 09:08:32;;;;;;;1.38;1.20;;;20.20;52.90;;;;;;5080894;28;20029;-58
2023/10/27 09:10:58;;;;;;;1.38;1.20;;;20.20;52.90;;;;;;5097184;28;20112;-57
2023/10/27 09:13:24;;;;;;;1.60;1.40;;;20.20;52.90;;;;;;5097231;28;20063;-55
2023/10/27 09:15:51;;;;;;;1.08;0.98;;;20.20;52.90;;;;;;5096565;28;20403;-58
2023/10/27 09:18:18;;;;;;;1.52;1.33;;;20.20;52.90;;;;;;5079171;28;20041;-57
2023/10/27 09:20:49;;;;;;;1.40;1.30;;;20.20;52.90;;;;;;5089967;28;20036;-55
2023/10/27 09:23:16;;;;;;;1.33;1.23;;;20.20;52.90;;;;;;5097740;28;20035;-56
2023/10/27 09:25:42;;;;;;;1.58;1.27;;;20.20;52.90;;;;;;5096616;28;20171;-57
2023/10/27 09:28:08;;;;;;;1.05;0.95;;;20.20;52.90;;;;;;5097280;28;20067;-57
2023/10/27 09:30:38;;;;;;;1.45;1.08;;;20.20;52.90;;;;;;5087989;28;20032;-58
2023/10/27 09:33:17;;;;;;;1.02;0.90;;;20.20;52.90;;;;;;5081397;28;20074;-56
2023/10/27 09:35:44;;;;;;;2.47;1.38;;;20.20;52.90;;;;;;5081722;28;20360;-58
2023/10/27 09:38:12;;;;;;;1.23;1.08;;;20.20;53.00;;;;;;5076309;28;20304;-56
2023/10/27 09:40:39;;;;;;;1.60;1.48;;;20.20;53.10;;;;;;5088278;28;20097;-58
2023/10/27 09:43:16;;;;;;;1.48;1.20;;;20.20;53.20;;;;;;5097486;28;20120;-57
2023/10/27 09:46:04;;;;;;;1.30;1.17;;;20.20;53.30;;;;;;5094464;28;20055;-57
2023/10/27 09:48:32;;;;;;;1.98;1.20;;;20.20;53.30;;;;;;5079260;28;20036;-56
2023/10/27 09:51:06;;;;;;;1.30;1.10;;;20.20;53.30;;;;;;5094823;28;20020;-54
2023/10/27 09:53:33;;;;;;;1.20;1.10;;;20.20;53.40;;;;;;5075026;28;20037;-58
2023/10/27 09:56:00;;;;;;;1.90;1.25;;;20.20;53.40;;;;;;5087357;28;20044;-57
2023/10/27 09:58:29;;;;;;;1.15;1.00;;;20.20;53.40;;;;;;5088129;28;20068;-56
2023/10/27 10:00:56;;;;;;;1.25;1.15;;;20.20;53.50;;;;;;5088464;28;20047;-56
2023/10/27 10:03:27;;;;;;;1.27;1.17;;;20.20;53.50;;;;;;5078974;28;20092;-56
2023/10/27 10:06:17;;;;;;;1.33;1.23;;;20.20;53.60;;;;;;5087526;28;20024;-56
2023/10/27 10:09:09;;;;;;;1.45;1.27;;;20.20;53.60;;;;;;5078106;28;20039;-57
2023/10/27 10:11:55;;;;;;;1.33;1.20;;;20.20;53.70;;;;;;5078834;28;20027;-57
2023/10/27 10:14:36;;;;;;;1.42;1.20;;;20.20;53.70;;;;;;5075876;28;20455;-56
2023/10/27 10:17:04;;;;;;;2.60;1.40;;;20.20;53.70;;;;;;5070846;28;20530;-58
2023/10/27 10:19:51;;;;;;;1.48;1.38;;;20.20;53.70;;;;;;5074283;28;20032;-59
2023/10/27 10:22:42;;;;;;;1.30;1.20;;;20.20;53.80;;;;;;5078260;28;20035;-58
2023/10/27 10:25:23;;;;;;;1.70;1.33;;;20.20;53.80;;;;;;5069543;28;20102;-58
2023/10/27 10:28:16;;;;;;;1.20;1.10;;;20.20;53.80;;;;;;5076552;28;20115;-59
2023/10/27 10:30:47;;;;;;;1.20;1.10;;;20.20;53.80;;;;;;5061293;28;20504;-58
2023/10/27 10:33:24;;;;;;;2.22;1.08;;;20.20;53.80;;;;;;5074653;28;20020;-56
2023/10/27 10:35:52;;;;;;;1.73;1.23;;;20.20;53.80;;;;;;5070685;28;20036;-58
2023/10/27 10:38:26;;;;;;;1.70;1.27;;;20.20;53.80;;;;;;5079353;28;20024;-57
2023/10/27 10:41:02;;;;;;;1.30;1.20;;;20.20;53.90;;;;;;5075663;28;20035;-58
2023/10/27 10:43:38;;;;;;;1.30;1.20;;;20.20;53.90;;;;;;5056695;28;20363;-58
2023/10/27 10:46:10;;;;;;;1.23;1.13;;;20.20;53.90;;;;;;5080303;28;20482;-58
2023/10/27 10:48:41;;;;;;;1.42;1.33;;;20.20;54.00;;;;;;5073436;28;20051;-58
2023/10/27 10:51:15;;;;;;;1.23;1.10;;;20.20;54.00;;;;;;5080050;28;20039;-59
2023/10/27 10:53:42;;;;;;;1.50;1.20;;;20.20;54.00;;;;;;5075171;28;20475;-58
2023/10/27 10:56:08;;;;;;;1.10;1.00;;;20.20;54.00;;;;;;5074880;28;20107;-61
2023/10/27 10:58:36;;;;;;;1.38;1.20;;;20.20;54.00;;;;;;5074691;28;20439;-56
2023/10/27 11:01:03;;;;;;;1.30;1.00;;;20.20;54.10;;;;;;5074929;28;20050;-58
2023/10/27 11:03:36;;;;;;;1.73;1.23;;;20.30;54.20;;;;;;5087492;28;20047;-58
2023/10/27 11:06:05;;;;;;;1.27;1.17;;;20.30;54.90;;;;;;5074886;28;20024;-57
2023/10/27 11:08:35;;;;;;;1.92;1.48;;;20.30;54.30;;;;;;5075027;28;20028;-54
2023/10/27 11:11:05;;;;;;;1.92;1.35;;;20.30;54.40;;;;;;5087043;28;20047;-57
2023/10/27 11:13:33;;;;;;;1.35;1.25;;;20.30;54.40;;;;;;5074438;28;20063;-55
2023/10/27 11:16:02;;;;;;;1.73;1.25;;;20.30;54.50;;;;;;5071434;28;20506;-56
2023/10/27 11:18:31;;;;;;;1.20;1.10;;;20.30;54.50;;;;;;5049055;28;20029;-55
2023/10/27 11:20:57;;;;;;;1.17;1.00;;;20.30;54.50;;;;;;5075441;28;20032;-57
2023/10/27 11:23:30;;;;;;;2.20;1.40;;;20.30;54.50;;;;;;5076156;28;20427;-57
2023/10/27 11:26:04;;;;;;;1.33;1.23;;;20.30;54.40;;;;;;5073336;28;20183;-57
2023/10/27 11:28:33;;;;;;;;;;;20.30;54.40;;;;;;5068119;28;20028;-58
2023/10/27 11:31:19;;;;;;;1.10;1.00;;;20.30;54.40;;;;;;5072849;28;20335;-56
2023/10/27 11:34:03;;;;;;;1.40;1.20;;;20.30;54.40;;;;;;5071020;28;20168;-54
2023/10/27 11:36:38;;;;;;;1.77;1.10;;;20.30;54.40;;;;;;5073475;28;20064;-55
2023/10/27 11:39:14;;;;;;;1.35;0.90;;;20.30;54.40;;;;;;5076476;28;20096;-58
2023/10/27 11:42:00;;;;;;;1.50;1.25;;;20.30;54.40;;;;;;5066452;28;20059;-53
2023/10/27 11:44:31;;;;;;;1.10;1.00;;;20.30;54.40;;;;;;5047285;28;20051;-56
2023/10/27 11:46:58;;;;;;;1.60;1.13;;;20.30;54.40;;;;;;5083197;28;20051;-58
2023/10/27 11:49:25;;;;;;;1.98;0.90;;;20.30;54.50;;;;;;5071956;28;20107;-56
2023/10/27 11:51:55;;;;;;;2.30;1.25;;;20.30;54.50;;;;;;5081913;28;20035;-61
2023/10/27 11:54:26;;;;;;;1.65;1.30;;;20.30;54.60;;;;;;5086245;28;20506;-57
2023/10/27 11:56:53;;;;;;;1.10;1.00;;;20.30;54.70;;;;;;5063479;28;20332;-57
2023/10/27 11:59:19;;;;;;;1.10;1.00;;;20.30;54.70;;;;;;5075599;28;20049;-57
2023/10/27 12:01:45;;;;;;;1.20;1.08;;;20.30;54.70;;;;;;5069977;28;20035;-58
2023/10/27 12:04:12;;;;;;;1.75;1.40;;;20.30;54.80;;;;;;5076880;28;20028;-57
2023/10/27 12:06:39;;;;;;;1.80;1.30;;;20.30;54.80;;;;;;5076359;28;20424;-58
2023/10/27 12:09:05;;;;;;;1.08;0.70;;;20.30;54.80;;;;;;5077089;28;20035;-58
2023/10/27 12:11:31;;;;;;;1.20;1.10;;;20.30;54.80;;;;;;5086730;28;20028;-58
2023/10/27 12:13:57;;;;;;;1.77;1.23;;;20.40;54.80;;;;;;5094686;28;20020;-58
2023/10/27 12:16:23;;;;;;;1.08;0.98;;;20.40;54.90;;;;;;5091854;28;20103;-57
2023/10/27 12:18:50;;;;;;;1.25;1.15;;;20.40;54.90;;;;;;5077651;28;20173;-57
2023/10/27 12:21:15;;;;;;;1.02;0.93;;;20.40;54.90;;;;;;5070181;28;20089;-57
2023/10/27 12:23:42;;;;;;;1.52;1.05;;;20.40;54.80;;;;;;5071996;28;20028;-58
2023/10/27 12:26:08;;;;;;;1.00;0.93;;;20.40;54.80;;;;;;5072820;28;20072;-57
2023/10/27 12:28:34;;;;;;;1.40;0.93;;;20.40;54.80;;;;;;5072111;28;20378;-58
2023/10/27 12:31:01;;;;;;;1.45;0.88;;;20.40;54.80;;;;;;5089668;28;20034;-58
2023/10/27 12:33:28;;;;;;;0.95;0.93;;;20.40;54.80;;;;;;5085145;28;20070;-58
2023/10/27 12:35:54;;;;;;;1.13;0.90;;;20.40;54.80;;;;;;5079123;28;20411;-55
2023/10/27 12:38:20;;;;;;;1.48;1.00;;;20.40;54.80;;;;;;5072022;28;20324;-59
2023/10/27 12:40:47;;;;;;;2.88;0.80;;;20.40;54.80;;;;;;5072813;28;20051;-57
2023/10/27 12:43:16;;;;;;;1.20;0.88;;;20.40;54.80;;;;;;5054572;28;20028;-57
2023/10/27 12:45:42;;;;;;;1.13;0.98;;;20.40;54.80;;;;;;5068588;28;20036;-57
2023/10/27 12:48:09;;;;;;;0.63;0.50;;;20.40;54.80;;;;;;5078987;28;20064;-57
2023/10/27 12:50:36;;;;;;;1.00;0.90;;;20.30;54.70;;;;;;5078319;28;20443;-57